Time;durP1;ratioP1;P1;durP2;ratioP2;P2;SDS_P1;SDS_P2;PMS_P1;PMS_P2;Temp;Humidity;BMP_temperature;BMP_pressure;BME280_temperature;BME280_humidity;BME280_pressure;Samples;Min_cycle;Max_cycle;Signal;HPM_P1;HPM_P2
2022/07/22 00:01:12;;;;;;;3.10;1.60;;;;;;;;;;5032732;28;20206;-64
2022/07/22 00:03:44;;;;;;;2.63;1.80;;;;;;;;;;5030345;28;20226;-62
2022/07/22 00:06:14;;;;;;;3.30;1.40;;;;;;;;;;5025924;28;20645;-62
2022/07/22 00:08:45;;;;;;;2.07;1.50;;;;;;;;;;5028073;28;20199;-64
2022/07/22 00:11:15;;;;;;;2.67;1.63;;;;;;;;;;5028369;28;20187;-64
2022/07/22 00:13:47;;;;;;;1.70;1.50;;;;;;;;;;5031297;28;20191;-64
2022/07/22 00:16:22;;;;;;;3.03;1.60;;;;;;;;;;5002256;28;20215;-62
2022/07/22 00:18:52;;;;;;;4.70;1.80;;;;;;;;;;5037406;28;20256;-63
2022/07/22 00:21:21;;;;;;;4.10;2.00;;;;;;;;;;5030926;28;20202;-63
2022/07/22 00:23:54;;;;;;;2.20;1.43;;;;;;;;;;5026898;28;20277;-63
2022/07/22 00:26:23;;;;;;;5.33;1.40;;;;;;;;;;5026054;28;20196;-62
2022/07/22 00:28:53;;;;;;;3.03;1.60;;;;;;;;;;5034289;28;20268;-62
2022/07/22 00:31:30;;;;;;;3.13;1.50;;;;;;;;;;5037076;28;20187;-62
2022/07/22 00:34:03;;;;;;;2.07;1.47;;;;;;;;;;5009086;28;20198;-62
2022/07/22 00:36:34;;;;;;;3.30;1.63;;;;;;;;;;5009265;28;20195;-62
2022/07/22 00:39:06;;;;;;;3.47;1.70;;;;;;;;;;5037297;28;20230;-62
2022/07/22 00:41:37;;;;;;;3.33;1.77;;;;;;;;;;5025040;28;20668;-62
2022/07/22 00:44:08;;;;;;;3.60;1.67;;;;;;;;;;5032462;28;20245;-62
2022/07/22 00:46:38;;;;;;;3.70;1.70;;;;;;;;;;5032740;28;20218;-62
2022/07/22 00:49:12;;;;;;;3.80;1.63;;;;;;;;;;5013392;28;20190;-63
2022/07/22 00:51:44;;;;;;;3.37;1.53;;;;;;;;;;5027605;28;20188;-62
2022/07/22 00:54:14;;;;;;;3.73;1.60;;;;;;;;;;5024207;28;20250;-62
2022/07/22 00:56:50;;;;;;;3.00;1.60;;;;;;;;;;5017586;28;20659;-62
2022/07/22 00:59:20;;;;;;;2.90;1.60;;;;;;;;;;5022827;28;20698;-62
2022/07/22 01:01:52;;;;;;;2.47;1.57;;;;;;;;;;5026742;28;20308;-62
2022/07/22 01:04:21;;;;;;;2.53;1.60;;;;;;;;;;5012461;28;20608;-62
2022/07/22 01:06:51;;;;;;;5.23;1.90;;;;;;;;;;5022417;28;20214;-62
2022/07/22 01:09:23;;;;;;;6.80;1.70;;;;;;;;;;5009746;28;20207;-62
2022/07/22 01:11:52;;;;;;;3.43;1.27;;;;;;;;;;5011049;28;20223;-62
2022/07/22 01:14:22;;;;;;;2.77;1.40;;;;;;;;;;5007669;28;20774;-62
2022/07/22 01:16:52;;;;;;;3.23;1.40;;;;;;;;;;5022657;28;20692;-62
2022/07/22 01:19:24;;;;;;;3.10;1.60;;;;;;;;;;5036215;28;20210;-62
2022/07/22 01:21:54;;;;;;;1.97;1.70;;;;;;;;;;5020054;28;20202;-62
2022/07/22 01:24:25;;;;;;;2.30;1.40;;;;;;;;;;5029832;28;20411;-62
2022/07/22 01:26:58;;;;;;;2.97;1.50;;;;;;;;;;5025832;28;20199;-62
2022/07/22 01:29:29;;;;;;;4.10;2.13;;;;;;;;;;5020471;28;20219;-62
2022/07/22 01:32:03;;;;;;;2.53;1.60;;;;;;;;;;5031571;28;20202;-62
2022/07/22 01:34:34;;;;;;;2.97;1.33;;;;;;;;;;5023883;28;20207;-62
2022/07/22 01:37:17;;;;;;;1.97;1.40;;;;;;;;;;5019869;28;20230;-62
2022/07/22 01:39:47;;;;;;;2.43;1.57;;;;;;;;;;5023793;28;20195;-62
2022/07/22 01:42:20;;;;;;;2.13;1.50;;;;;;;;;;5024584;28;20222;-62
2022/07/22 01:44:52;;;;;;;2.47;1.50;;;;;;;;;;5034225;28;20215;-62
2022/07/22 01:47:22;;;;;;;1.43;1.20;;;;;;;;;;5015500;28;20203;-62
2022/07/22 01:49:53;;;;;;;3.33;1.60;;;;;;;;;;5032681;28;20198;-62
2022/07/22 01:52:24;;;;;;;4.20;1.37;;;;;;;;;;5017531;28;20199;-62
2022/07/22 01:54:53;;;;;;;2.10;1.50;;;;;;;;;;5031385;28;20710;-62
2022/07/22 01:57:22;;;;;;;2.63;1.63;;;;;;;;;;5027296;28;20241;-62
2022/07/22 01:59:53;;;;;;;3.20;1.70;;;;;;;;;;5026239;28;20815;-62
2022/07/22 02:02:24;;;;;;;2.33;1.30;;;;;;;;;;5035979;28;20299;-62
2022/07/22 02:04:54;;;;;;;3.83;1.63;;;;;;;;;;5019108;28;20612;-62
2022/07/22 02:07:25;;;;;;;6.03;1.40;;;;;;;;;;5014892;28;20195;-62
2022/07/22 02:09:57;;;;;;;2.20;1.40;;;;;;;;;;5033401;28;20627;-62
2022/07/22 02:12:30;;;;;;;4.37;1.70;;;;;;;;;;5025419;28;20202;-62
2022/07/22 02:15:05;;;;;;;2.43;1.60;;;;;;;;;;5032718;28;20191;-62
2022/07/22 02:17:36;;;;;;;1.77;1.47;;;;;;;;;;5018726;28;20214;-62
2022/07/22 02:20:08;;;;;;;2.63;1.60;;;;;;;;;;5031323;28;20203;-62
2022/07/22 02:22:39;;;;;;;2.83;1.40;;;;;;;;;;5028042;28;20195;-62
2022/07/22 02:25:10;;;;;;;2.73;1.60;;;;;;;;;;5025941;28;20218;-62
2022/07/22 02:27:42;;;;;;;2.23;1.60;;;;;;;;;;5012779;28;20199;-63
2022/07/22 02:30:13;;;;;;;2.43;1.67;;;;;;;;;;5024820;28;20645;-62
2022/07/22 02:32:42;;;;;;;4.33;1.70;;;;;;;;;;5005432;28;20195;-62
2022/07/22 02:35:12;;;;;;;2.03;1.53;;;;;;;;;;5039249;28;20195;-62
2022/07/22 02:37:42;;;;;;;2.73;1.70;;;;;;;;;;5037036;28;20195;-62
2022/07/22 02:40:14;;;;;;;2.10;1.40;;;;;;;;;;5032134;28;20222;-62
2022/07/22 02:42:43;;;;;;;3.17;1.47;;;;;;;;;;5026090;28;20199;-62
2022/07/22 02:45:12;;;;;;;2.93;1.43;;;;;;;;;;5025837;28;20210;-62
2022/07/22 02:47:49;;;;;;;2.20;1.60;;;;;;;;;;5015138;28;20210;-62
2022/07/22 02:50:20;;;;;;;7.17;1.67;;;;;;;;;;5011489;28;20569;-62
2022/07/22 02:52:48;;;;;;;2.57;1.47;;;;;;;;;;5023106;28;20668;-62
2022/07/22 02:55:21;;;;;;;3.83;1.50;;;;;;;;;;5026493;28;20226;-62
2022/07/22 02:57:53;;;;;;;2.30;1.57;;;;;;;;;;5027327;28;20658;-62
2022/07/22 03:00:27;;;;;;;3.43;1.67;;;;;;;;;;5028650;28;20203;-62
2022/07/22 03:03:11;;;;;;;2.03;1.40;;;;;;;;;;5032536;28;20262;-62
2022/07/22 03:05:40;;;;;;;4.57;1.73;;;;;;;;;;5025765;28;20555;-62
2022/07/22 03:08:11;;;;;;;4.10;1.20;;;;;;;;;;5022053;28;20183;-62
2022/07/22 03:10:42;;;;;;;3.40;1.60;;;;;;;;;;5037796;28;20195;-62
2022/07/22 03:13:15;;;;;;;2.27;1.57;;;;;;;;;;5034018;28;20197;-62
2022/07/22 03:15:49;;;;;;;4.27;1.53;;;;;;;;;;5027074;28;20187;-62
2022/07/22 03:18:22;;;;;;;2.93;1.67;;;;;;;;;;5022758;28;20225;-62
2022/07/22 03:20:51;;;;;;;2.57;1.47;;;;;;;;;;5033195;28;20194;-62
2022/07/22 03:23:34;;;;;;;1.73;1.40;;;;;;;;;;5026284;28;20227;-62
2022/07/22 03:26:10;;;;;;;2.03;1.30;;;;;;;;;;5032496;28;20656;-62
2022/07/22 03:28:41;;;;;;;3.13;1.27;;;;;;;;;;5016157;28;20629;-62
2022/07/22 03:31:12;;;;;;;3.43;1.60;;;;;;;;;;5029864;28;20199;-62
2022/07/22 03:33:44;;;;;;;2.60;1.70;;;;;;;;;;5018567;28;20205;-62
2022/07/22 03:36:15;;;;;;;2.20;1.20;;;;;;;;;;5011811;28;20211;-62
2022/07/22 03:38:46;;;;;;;3.40;1.67;;;;;;;;;;5036038;28;20362;-62
2022/07/22 03:41:18;;;;;;;3.00;1.50;;;;;;;;;;5004424;28;20584;-62
2022/07/22 03:43:48;;;;;;;2.30;1.43;;;;;;;;;;5009060;28;20227;-62
2022/07/22 03:46:17;;;;;;;2.87;1.50;;;;;;;;;;5036038;28;20214;-62
2022/07/22 03:48:46;;;;;;;3.33;1.60;;;;;;;;;;5029761;28;20194;-62
2022/07/22 03:51:17;;;;;;;2.70;1.60;;;;;;;;;;5011906;28;20641;-62
2022/07/22 03:53:48;;;;;;;2.23;1.40;;;;;;;;;;5025459;28;20592;-62
2022/07/22 03:56:20;;;;;;;2.87;1.50;;;;;;;;;;5028641;28;20196;-62
2022/07/22 03:58:54;;;;;;;3.57;1.73;;;;;;;;;;5029432;28;20535;-62
2022/07/22 04:01:26;;;;;;;2.47;1.47;;;;;;;;;;5030465;28;20638;-65
2022/07/22 04:03:56;;;;;;;4.47;1.67;;;;;;;;;;5014853;28;20222;-65
2022/07/22 04:06:31;;;;;;;3.60;1.60;;;;;;;;;;5031571;28;20233;-65
2022/07/22 04:09:06;;;;;;;3.80;1.33;;;;;;;;;;5014282;28;20207;-64
2022/07/22 04:11:38;;;;;;;2.73;1.67;;;;;;;;;;5028611;28;20206;-64
2022/07/22 04:14:07;;;;;;;2.03;1.50;;;;;;;;;;4997569;28;20199;-64
2022/07/22 04:16:40;;;;;;;3.57;1.57;;;;;;;;;;5024329;28;20215;-64
2022/07/22 04:19:14;;;;;;;4.00;1.60;;;;;;;;;;5028483;28;20219;-64
2022/07/22 04:21:44;;;;;;;4.27;2.00;;;;;;;;;;5011491;28;20191;-65
2022/07/22 04:24:15;;;;;;;2.40;1.53;;;;;;;;;;5015176;28;20199;-64
2022/07/22 04:26:46;;;;;;;4.90;1.50;;;;;;;;;;5030622;28;20274;-64
2022/07/22 04:29:16;;;;;;;3.23;1.70;;;;;;;;;;5031058;28;20253;-64
2022/07/22 04:31:48;;;;;;;2.77;1.70;;;;;;;;;;5039240;28;20207;-64
2022/07/22 04:34:18;;;;;;;2.10;1.50;;;;;;;;;;5011953;28;20254;-64
2022/07/22 04:37:00;;;;;;;3.03;1.43;;;;;;;;;;5041461;28;20229;-65
2022/07/22 04:39:33;;;;;;;4.30;1.70;;;;;;;;;;5028717;28;20203;-64
2022/07/22 04:42:00;;;;;;;4.40;1.90;;;;;;;;;;5027768;28;20655;-63
2022/07/22 04:44:31;;;;;;;4.13;1.83;;;;;;;;;;5008337;28;20211;-63
2022/07/22 04:47:01;;;;;;;4.50;1.30;;;;;;;;;;5030263;28;20234;-64
2022/07/22 04:49:38;;;;;;;3.27;1.60;;;;;;;;;;5023295;28;20717;-65
2022/07/22 04:52:10;;;;;;;4.33;1.40;;;;;;;;;;5008302;28;20199;-68
2022/07/22 04:54:40;;;;;;;6.60;2.10;;;;;;;;;;5023470;28;20230;-66
2022/07/22 04:57:09;;;;;;;3.67;1.80;;;;;;;;;;5010806;28;20213;-67
2022/07/22 04:59:40;;;;;;;4.47;1.90;;;;;;;;;;5029152;28;20254;-67
2022/07/22 05:02:11;;;;;;;3.20;1.70;;;;;;;;;;5001868;28;20199;-66
2022/07/22 05:04:41;;;;;;;3.97;2.20;;;;;;;;;;5030123;28;20250;-65
2022/07/22 05:07:13;;;;;;;6.63;2.10;;;;;;;;;;5028532;28;20625;-65
2022/07/22 05:10:06;;;;;;;7.23;2.30;;;;;;;;;;5027671;28;20218;-65
2022/07/22 05:12:49;;;;;;;3.20;2.00;;;;;;;;;;5025054;28;20207;-66
2022/07/22 05:15:17;;;;;;;3.57;2.07;;;;;;;;;;5028350;28;20641;-66
2022/07/22 05:17:48;;;;;;;10.67;3.23;;;;;;;;;;5023232;28;20199;-67
2022/07/22 05:20:19;;;;;;;13.37;3.07;;;;;;;;;;5023682;28;20211;-67
2022/07/22 05:22:53;;;;;;;6.40;3.10;;;;;;;;;;5032435;28;20265;-67
2022/07/22 05:25:26;;;;;;;3.53;2.00;;;;;;;;;;5027816;28;20230;-68
2022/07/22 05:27:59;;;;;;;5.67;2.60;;;;;;;;;;5026061;28;20203;-66
2022/07/22 05:30:34;;;;;;;5.83;2.77;;;;;;;;;;5019754;28;20257;-64
2022/07/22 05:33:06;;;;;;;4.97;3.10;;;;;;;;;;5027338;28;20282;-64
2022/07/22 05:35:36;;;;;;;7.87;3.10;;;;;;;;;;5034548;28;20253;-64
2022/07/22 05:38:13;;;;;;;7.37;3.10;;;;;;;;;;5032259;28;20281;-64
2022/07/22 05:40:42;;;;;;;6.77;2.93;;;;;;;;;;5027840;28;20281;-65
2022/07/22 05:43:13;;;;;;;5.10;3.20;;;;;;;;;;5028859;28;20303;-66
2022/07/22 05:45:44;;;;;;;6.37;3.27;;;;;;;;;;5025640;28;20211;-64
2022/07/22 05:48:14;;;;;;;6.90;3.33;;;;;;;;;;5027878;28;20608;-64
2022/07/22 05:50:43;;;;;;;8.43;3.57;;;;;;;;;;5010322;28;20195;-66
2022/07/22 05:53:17;;;;;;;5.63;3.37;;;;;;;;;;5018013;28;20217;-66
2022/07/22 05:55:45;;;;;;;6.30;3.30;;;;;;;;;;5027338;28;20183;-64
2022/07/22 05:58:15;;;;;;;3.47;3.13;;;;;;;;;;5031638;28;20193;-63
2022/07/22 06:00:45;;;;;;;6.83;3.20;;;;;;;;;;5021138;28;20321;-63
2022/07/22 06:03:16;;;;;;;6.13;3.20;;;;;;;;;;5027185;28;20260;-63
2022/07/22 06:05:47;;;;;;;5.53;3.47;;;;;;;;;;5020196;28;20227;-64
2022/07/22 06:08:24;;;;;;;5.57;3.27;;;;;;;;;;5013143;28;20191;-64
2022/07/22 06:10:55;;;;;;;8.10;3.47;;;;;;;;;;5028788;28;20201;-64
2022/07/22 06:13:31;;;;;;;5.00;2.73;;;;;;;;;;5022729;28;20738;-64
2022/07/22 06:16:13;;;;;;;6.73;2.97;;;;;;;;;;5027796;28;20260;-64
2022/07/22 06:18:44;;;;;;;5.40;3.00;;;;;;;;;;5011518;28;20199;-64
2022/07/22 06:21:16;;;;;;;4.83;2.57;;;;;;;;;;5028757;28;20191;-65
2022/07/22 06:23:50;;;;;;;4.50;2.80;;;;;;;;;;5027360;28;20749;-64
2022/07/22 06:26:20;;;;;;;5.10;3.00;;;;;;;;;;5005728;28;20222;-64
2022/07/22 06:28:50;;;;;;;5.43;3.17;;;;;;;;;;5009604;28;20207;-64
2022/07/22 06:31:24;;;;;;;4.87;2.80;;;;;;;;;;5029227;28;20190;-64
2022/07/22 06:34:08;;;;;;;5.33;2.90;;;;;;;;;;5019587;28;20306;-64
2022/07/22 06:36:37;;;;;;;6.80;2.90;;;;;;;;;;5027262;28;20253;-64
2022/07/22 06:39:07;;;;;;;8.37;3.23;;;;;;;;;;5020901;28;20206;-64
2022/07/22 06:41:39;;;;;;;4.93;2.90;;;;;;;;;;5022352;28;20611;-65
2022/07/22 06:44:09;;;;;;;4.93;3.20;;;;;;;;;;5006532;28;20261;-63
2022/07/22 06:46:40;;;;;;;5.50;3.40;;;;;;;;;;5025141;28;20226;-64
2022/07/22 06:49:11;;;;;;;5.03;2.90;;;;;;;;;;5034278;28;20695;-65
2022/07/22 06:51:42;;;;;;;8.13;3.37;;;;;;;;;;5025629;28;20198;-63
2022/07/22 06:54:13;;;;;;;5.00;3.10;;;;;;;;;;5026030;28;20223;-63
2022/07/22 06:56:42;;;;;;;6.93;3.10;;;;;;;;;;5027891;28;20385;-64
2022/07/22 06:59:10;;;;;;;6.17;3.13;;;;;;;;;;5024057;28;20195;-65
2022/07/22 07:01:42;;;;;;;4.53;2.87;;;;;;;;;;4998005;28;20818;-63
2022/07/22 07:04:16;;;;;;;7.53;2.73;;;;;;;;;;5020823;28;20733;-63
2022/07/22 07:06:45;;;;;;;5.10;3.00;;;;;;;;;;5030448;28;20229;-64
2022/07/22 07:09:18;;;;;;;6.33;3.17;;;;;;;;;;5004289;28;20226;-65
2022/07/22 07:11:49;;;;;;;5.90;2.43;;;;;;;;;;5025703;28;20195;-65
2022/07/22 07:14:20;;;;;;;6.67;2.47;;;;;;;;;;5021712;28;20199;-65
2022/07/22 07:16:50;;;;;;;4.30;2.47;;;;;;;;;;5019843;28;20241;-65
2022/07/22 07:19:21;;;;;;;3.03;2.10;;;;;;;;;;5027770;28;20707;-65
2022/07/22 07:21:49;;;;;;;3.07;1.33;;;;;;;;;;5025087;28;20195;-64
2022/07/22 07:24:19;;;;;;;4.13;1.70;;;;;;;;;;5031457;28;20541;-64
2022/07/22 07:26:52;;;;;;;2.73;1.70;;;;;;;;;;5002430;28;20303;-65
2022/07/22 07:29:22;;;;;;;2.80;1.50;;;;;;;;;;5029643;28;20211;-65
2022/07/22 07:31:54;;;;;;;4.97;1.77;;;;;;;;;;5027130;28;20636;-64
2022/07/22 07:34:23;;;;;;;4.97;2.07;;;;;;;;;;5027926;28;20198;-68
2022/07/22 07:36:54;;;;;;;1.90;1.60;;;;;;;;;;5032628;28;20199;-68
2022/07/22 07:39:26;;;;;;;3.27;1.43;;;;;;;;;;5029947;28;20198;-69
2022/07/22 07:42:23;;;;;;;3.30;1.57;;;;;;;;;;5026376;28;20218;-67
2022/07/22 07:44:52;;;;;;;3.20;1.43;;;;;;;;;;5038993;28;20687;-67
2022/07/22 07:47:23;;;;;;;3.57;1.60;;;;;;;;;;5014974;28;20298;-64
2022/07/22 07:49:53;;;;;;;3.83;1.47;;;;;;;;;;5018717;28;20195;-66
2022/07/22 07:52:28;;;;;;;3.93;1.60;;;;;;;;;;5006571;28;20199;-67
2022/07/22 07:54:59;;;;;;;4.20;1.70;;;;;;;;;;5029670;28;20234;-68
2022/07/22 07:57:48;;;;;;;4.07;1.83;;;;;;;;;;5024534;28;20232;-68
2022/07/22 08:00:28;;;;;;;3.07;1.30;;;;;;;;;;5031682;28;20194;-66
2022/07/22 08:03:00;;;;;;;3.77;1.50;;;;;;;;;;5030889;28;20202;-67
2022/07/22 08:05:33;;;;;;;2.20;1.50;;;;;;;;;;5029082;28;20235;-68
2022/07/22 08:08:05;;;;;;;3.57;1.60;;;;;;;;;;5042149;28;20202;-67
2022/07/22 08:10:43;;;;;;;3.50;1.60;;;;;;;;;;5038648;28;20870;-68
2022/07/22 08:13:29;;;;;;;3.80;1.60;;;;;;;;;;5037509;28;20570;-67
2022/07/22 08:16:02;;;;;;;3.57;1.63;;;;;;;;;;5040382;28;20230;-68
2022/07/22 08:18:36;;;;;;;3.07;1.83;;;;;;;;;;5036881;28;20207;-68
2022/07/22 08:21:12;;;;;;;4.30;1.77;;;;;;;;;;5045390;28;20670;-69
2022/07/22 08:23:43;;;;;;;3.03;1.90;;;;;;;;;;5034227;28;20583;-68
2022/07/22 08:26:26;;;;;;;4.57;1.80;;;;;;;;;;5026595;28;20738;-68
2022/07/22 08:29:00;;;;;;;2.47;1.40;;;;;;;;;;5017216;28;20211;-66
2022/07/22 08:31:34;;;;;;;3.70;1.50;;;;;;;;;;5031536;28;20233;-66
2022/07/22 08:34:06;;;;;;;4.17;1.57;;;;;;;;;;5029154;28;20319;-67
2022/07/22 08:36:36;;;;;;;2.60;1.53;;;;;;;;;;5012834;28;20214;-66
2022/07/22 08:39:08;;;;;;;3.43;1.50;;;;;;;;;;5028832;28;20187;-66
2022/07/22 08:41:39;;;;;;;3.30;1.30;;;;;;;;;;5028117;28;20914;-66
2022/07/22 08:44:12;;;;;;;3.50;1.33;;;;;;;;;;5035941;28;20214;-68
2022/07/22 08:46:45;;;;;;;2.40;1.23;;;;;;;;;;5008910;28;20246;-67
2022/07/22 08:49:17;;;;;;;2.03;1.40;;;;;;;;;;5010054;28;20243;-68
2022/07/22 08:51:48;;;;;;;10.00;1.93;;;;;;;;;;5010276;28;20230;-70
2022/07/22 08:54:18;;;;;;;3.17;1.80;;;;;;;;;;5010552;28;20259;-70
2022/07/22 08:56:48;;;;;;;2.03;1.40;;;;;;;;;;4993707;28;20198;-67
2022/07/22 08:59:19;;;;;;;2.63;1.50;;;;;;;;;;5001814;28;20584;-67
2022/07/22 09:02:08;;;;;;;3.20;1.37;;;;;;;;;;4981502;28;20196;-68
2022/07/22 09:04:58;;;;;;;3.13;1.43;;;;;;;;;;4975805;28;20545;-67
2022/07/22 09:07:53;;;;;;;1.77;1.30;;;;;;;;;;4998526;28;20203;-68
2022/07/22 09:10:24;;;;;;;2.50;1.23;;;;;;;;;;4997504;28;20268;-72
2022/07/22 09:13:16;;;;;;;2.23;1.23;;;;;;;;;;4994651;28;20196;-68
2022/07/22 09:15:49;;;;;;;3.43;1.93;;;;;;;;;;5013134;28;20203;-68
2022/07/22 09:18:22;;;;;;;3.03;1.67;;;;;;;;;;4982982;28;20204;-68
2022/07/22 09:20:58;;;;;;;2.70;1.77;;;;;;;;;;4994010;28;20199;-67
2022/07/22 09:23:26;;;;;;;2.33;1.60;;;;;;;;;;4976402;28;20200;-66
2022/07/22 09:25:57;;;;;;;3.13;1.70;;;;;;;;;;5008009;28;20220;-67
2022/07/22 09:28:29;;;;;;;2.50;1.60;;;;;;;;;;5001760;28;20205;-68
2022/07/22 09:31:04;;;;;;;3.90;1.40;;;;;;;;;;4991603;28;20188;-66
2022/07/22 09:33:44;;;;;;;1.80;1.40;;;;;;;;;;4995179;28;20596;-66
2022/07/22 09:36:18;;;;;;;2.40;1.40;;;;;;;;;;4992332;28;20531;-64
2022/07/22 09:38:47;;;;;;;2.50;1.47;;;;;;;;;;4999714;28;20234;-64
2022/07/22 09:41:25;;;;;;;4.17;1.90;;;;;;;;;;4997408;28;20211;-66
2022/07/22 09:43:56;;;;;;;4.00;1.40;;;;;;;;;;4985217;28;20192;-66
2022/07/22 09:46:37;;;;;;;4.10;1.70;;;;;;;;;;4999126;28;20216;-69
2022/07/22 09:49:07;;;;;;;2.60;1.60;;;;;;;;;;5002887;28;20287;-68
2022/07/22 09:51:37;;;;;;;4.83;1.70;;;;;;;;;;4995777;28;20189;-66
2022/07/22 09:54:08;;;;;;;4.40;1.70;;;;;;;;;;4988623;28;20271;-65
2022/07/22 09:56:38;;;;;;;2.67;1.60;;;;;;;;;;5023974;28;20206;-63
2022/07/22 09:59:09;;;;;;;4.40;1.70;;;;;;;;;;4984060;28;20624;-66
2022/07/22 10:01:38;;;;;;;2.93;1.80;;;;;;;;;;5031373;28;20542;-65
2022/07/22 10:04:17;;;;;;;2.70;1.80;;;;;;;;;;5019214;28;20285;-63
2022/07/22 10:06:52;;;;;;;3.10;1.83;;;;;;;;;;5032303;28;20211;-66
2022/07/22 10:09:24;;;;;;;2.97;1.80;;;;;;;;;;5002069;28;20734;-65
2022/07/22 10:12:00;;;;;;;3.80;1.77;;;;;;;;;;5010307;28;20198;-63
2022/07/22 10:14:30;;;;;;;3.03;1.70;;;;;;;;;;5015959;28;20624;-63
2022/07/22 10:17:00;;;;;;;3.77;1.97;;;;;;;;;;5032669;28;20217;-64
2022/07/22 10:19:40;;;;;;;2.17;1.40;;;;;;;;;;5030504;28;20206;-64
2022/07/22 10:22:42;;;;;;;3.10;1.60;;;;;;;;;;5028338;28;20191;-63
2022/07/22 10:25:56;;;;;;;4.23;1.60;;;;;;;;;;5032356;28;20293;-65
2022/07/22 10:28:58;;;;;;;3.23;1.53;;;;;;;;;;5006893;28;20770;-66
2022/07/22 10:31:58;;;;;;;3.13;1.50;;;;;;;;;;4951036;28;20212;-66
2022/07/22 10:38:46;;;;;;;2.80;1.53;;;;;;;;;;4951783;28;20288;-64
2022/07/22 10:42:03;;;;;;;3.43;1.67;;;;;;;;;;4876300;28;20283;-66
2022/07/22 10:48:17;;;;;;;3.40;1.40;;;;;;;;;;4930275;29;20198;-66
2022/07/22 10:51:11;;;;;;;3.07;1.60;;;;;;;;;;4935402;28;20213;-70
2022/07/22 10:53:53;;;;;;;3.00;1.60;;;;;;;;;;4935219;28;20249;-67
2022/07/22 10:56:26;;;;;;;2.87;2.00;;;;;;;;;;4944672;28;20217;-69
2022/07/22 10:59:19;;;;;;;2.67;1.70;;;;;;;;;;4934989;28;20230;-69
2022/07/22 11:01:54;;;;;;;3.23;1.80;;;;;;;;;;4946371;28;20220;-68
2022/07/22 11:04:24;;;;;;;3.57;1.60;;;;;;;;;;4922815;28;20651;-67
2022/07/22 11:06:59;;;;;;;7.67;1.50;;;;;;;;;;4948335;28;20233;-67
2022/07/22 11:09:36;;;;;;;3.17;1.67;;;;;;;;;;5010231;28;20203;-67
2022/07/22 11:12:14;;;;;;;2.43;1.80;;;;;;;;;;5030438;28;20281;-68
2022/07/22 11:14:45;;;;;;;2.73;1.73;;;;;;;;;;5027947;28;20266;-66
2022/07/22 11:17:15;;;;;;;2.13;1.50;;;;;;;;;;5011816;28;20205;-66
2022/07/22 11:19:45;;;;;;;4.87;1.67;;;;;;;;;;5034267;28;20198;-70
2022/07/22 11:22:19;;;;;;;4.20;1.23;;;;;;;;;;5015559;28;20214;-69
2022/07/22 11:24:50;;;;;;;3.83;1.60;;;;;;;;;;5024323;28;20191;-69
2022/07/22 11:27:22;;;;;;;2.80;1.60;;;;;;;;;;5033010;28;20295;-70
2022/07/22 11:29:57;;;;;;;2.57;1.43;;;;;;;;;;5028475;28;20214;-69
2022/07/22 11:32:36;;;;;;;2.73;1.70;;;;;;;;;;5028071;28;20191;-68
2022/07/22 11:35:16;;;;;;;2.70;1.50;;;;;;;;;;5029145;28;20209;-69
2022/07/22 11:37:58;;;;;;;2.50;1.40;;;;;;;;;;5034834;28;20195;-69
2022/07/22 11:40:35;;;;;;;2.97;1.47;;;;;;;;;;5008819;28;20202;-71
2022/07/22 11:43:04;;;;;;;4.43;1.57;;;;;;;;;;5038776;28;20196;-70
2022/07/22 11:45:33;;;;;;;3.57;2.00;;;;;;;;;;5028856;28;20191;-69
2022/07/22 11:48:14;;;;;;;4.03;1.60;;;;;;;;;;5045097;28;20206;-69
2022/07/22 11:50:48;;;;;;;2.43;1.50;;;;;;;;;;5034745;28;20195;-69
2022/07/22 11:53:24;;;;;;;2.47;1.40;;;;;;;;;;5036913;28;20760;-69
2022/07/22 11:55:59;;;;;;;4.17;1.50;;;;;;;;;;5039771;28;20223;-70
2022/07/22 11:58:46;;;;;;;2.27;1.60;;;;;;;;;;5021826;28;20198;-69
2022/07/22 12:01:30;;;;;;;4.03;2.03;;;;;;;;;;5044830;28;20206;-69
2022/07/22 12:04:07;;;;;;;2.97;1.70;;;;;;;;;;5045918;28;20205;-69
2022/07/22 12:06:49;;;;;;;3.97;2.40;;;;;;;;;;5003863;28;20206;-71
2022/07/22 12:09:28;;;;;;;2.90;2.20;;;;;;;;;;5021461;28;20201;-71
2022/07/22 12:12:01;;;;;;;6.60;2.63;;;;;;;;;;5045864;28;20205;-71
2022/07/22 12:14:35;;;;;;;4.27;2.00;;;;;;;;;;5018321;28;20205;-71
2022/07/22 12:17:18;;;;;;;3.87;1.70;;;;;;;;;;5030806;28;20522;-71
2022/07/22 12:19:53;;;;;;;2.77;2.03;;;;;;;;;;5040513;28;20612;-71
2022/07/22 12:22:24;;;;;;;2.13;1.40;;;;;;;;;;5011704;28;20222;-69
2022/07/22 12:25:02;;;;;;;4.20;2.00;;;;;;;;;;5020881;28;20205;-69
2022/07/22 12:27:39;;;;;;;2.80;1.50;;;;;;;;;;5002036;28;20911;-69
2022/07/22 12:30:18;;;;;;;2.57;1.47;;;;;;;;;;5016549;28;20226;-69
2022/07/22 12:32:51;;;;;;;2.30;1.90;;;;;;;;;;5035757;28;20194;-69
2022/07/22 12:35:27;;;;;;;4.00;2.20;;;;;;;;;;5024734;28;20195;-70
2022/07/22 12:38:07;;;;;;;3.97;2.03;;;;;;;;;;5027288;28;20635;-70
2022/07/22 12:40:37;;;;;;;5.00;2.40;;;;;;;;;;5022225;28;20238;-70
2022/07/22 12:43:07;;;;;;;2.90;1.77;;;;;;;;;;5028731;28;20192;-70
2022/07/22 12:45:38;;;;;;;2.80;1.93;;;;;;;;;;5028076;28;20214;-69
2022/07/22 12:48:09;;;;;;;4.60;2.23;;;;;;;;;;5025108;28;20207;-69
2022/07/22 12:50:45;;;;;;;3.67;1.83;;;;;;;;;;5033591;28;20193;-69
2022/07/22 12:53:18;;;;;;;3.57;1.50;;;;;;;;;;5008568;28;20220;-69
2022/07/22 12:55:55;;;;;;;2.57;1.80;;;;;;;;;;5005877;28;20268;-68
2022/07/22 12:58:26;;;;;;;3.77;1.87;;;;;;;;;;5027393;28;20214;-69
2022/07/22 13:01:01;;;;;;;2.97;1.80;;;;;;;;;;5032949;28;20839;-69
2022/07/22 13:03:33;;;;;;;3.27;2.00;;;;;;;;;;5003376;28;20262;-67
2022/07/22 13:06:10;;;;;;;2.77;1.80;;;;;;;;;;5029212;28;20282;-71
2022/07/22 13:08:40;;;;;;;40.23;10.30;;;;;;;;;;5031738;28;20642;-69
2022/07/22 13:11:15;;;;;;;44.97;11.57;;;;;;;;;;5033695;28;20195;-68
2022/07/22 13:14:03;;;;;;;12.80;5.80;;;;;;;;;;5012177;28;20203;-69
2022/07/22 13:16:44;;;;;;;12.87;4.80;;;;;;;;;;5027709;28;20656;-69
2022/07/22 13:19:13;;;;;;;10.90;4.23;;;;;;;;;;5036519;28;20210;-70
2022/07/22 13:21:44;;;;;;;12.53;3.10;;;;;;;;;;5008905;28;20195;-69
2022/07/22 13:24:14;;;;;;;3.43;2.00;;;;;;;;;;5029648;28;20259;-69
2022/07/22 13:26:50;;;;;;;5.97;2.40;;;;;;;;;;5009831;28;20202;-69
2022/07/22 13:29:23;;;;;;;4.23;1.80;;;;;;;;;;5028518;28;20206;-69
2022/07/22 13:31:55;;;;;;;4.27;2.60;;;;;;;;;;5025484;28;20214;-68
2022/07/22 13:34:46;;;;;;;3.80;2.57;;;;;;;;;;5025169;28;20203;-68
2022/07/22 13:37:15;;;;;;;3.23;1.80;;;;;;;;;;5025887;28;20215;-69
2022/07/22 13:39:47;;;;;;;3.53;2.03;;;;;;;;;;4996084;28;20198;-69
2022/07/22 13:42:29;;;;;;;4.00;1.97;;;;;;;;;;5023266;28;20203;-68
2022/07/22 13:45:00;;;;;;;3.37;2.10;;;;;;;;;;5035371;28;20209;-67
2022/07/22 13:47:31;;;;;;;3.80;2.07;;;;;;;;;;5027980;28;20547;-69
2022/07/22 13:50:01;;;;;;;2.77;2.10;;;;;;;;;;5021445;28;20199;-69
2022/07/22 13:52:32;;;;;;;3.27;2.10;;;;;;;;;;5023174;28;20206;-68
2022/07/22 13:55:05;;;;;;;2.03;1.60;;;;;;;;;;5022513;28;20235;-68
2022/07/22 13:57:37;;;;;;;3.33;1.53;;;;;;;;;;5033041;28;20246;-68
2022/07/22 14:00:16;;;;;;;4.53;2.47;;;;;;;;;;5040739;28;20186;-68
2022/07/22 14:02:47;;;;;;;3.57;2.20;;;;;;;;;;5015479;28;20203;-67
2022/07/22 14:05:18;;;;;;;3.10;2.20;;;;;;;;;;5027721;28;20214;-68
2022/07/22 14:07:49;;;;;;;2.70;1.90;;;;;;;;;;5035161;28;20203;-68
2022/07/22 14:10:21;;;;;;;5.40;2.80;;;;;;;;;;5015582;28;20276;-68
2022/07/22 14:12:53;;;;;;;5.50;2.23;;;;;;;;;;5036269;28;20199;-68
2022/07/22 14:15:25;;;;;;;3.93;2.60;;;;;;;;;;5038122;28;20693;-69
2022/07/22 14:17:54;;;;;;;4.67;2.70;;;;;;;;;;5026502;28;20669;-69
2022/07/22 14:20:27;;;;;;;2.67;2.30;;;;;;;;;;5028293;28;20203;-67
2022/07/22 14:23:02;;;;;;;3.07;2.43;;;;;;;;;;5036762;28;20198;-67
2022/07/22 14:25:45;;;;;;;3.90;2.70;;;;;;;;;;5033476;28;20195;-67
2022/07/22 14:28:23;;;;;;;4.20;2.47;;;;;;;;;;5021371;28;20210;-67
2022/07/22 14:31:08;;;;;;;2.40;2.20;;;;;;;;;;5028628;28;20230;-68
2022/07/22 14:33:41;;;;;;;3.83;2.50;;;;;;;;;;5036712;28;20205;-69
2022/07/22 14:36:10;;;;;;;2.97;2.10;;;;;;;;;;5042562;28;20650;-69
2022/07/22 14:38:43;;;;;;;5.83;2.73;;;;;;;;;;5036250;28;20456;-68
2022/07/22 14:41:17;;;;;;;3.90;2.67;;;;;;;;;;5020195;28;20214;-67
2022/07/22 14:43:50;;;;;;;5.90;2.50;;;;;;;;;;5025567;28;20206;-67
2022/07/22 14:46:30;;;;;;;3.20;2.70;;;;;;;;;;5015836;28;20212;-68
2022/07/22 14:49:01;;;;;;;4.90;2.60;;;;;;;;;;5037831;28;20215;-68
2022/07/22 14:51:31;;;;;;;4.33;2.33;;;;;;;;;;5029984;28;20204;-68
2022/07/22 14:54:01;;;;;;;2.50;1.90;;;;;;;;;;5028662;28;20233;-68
2022/07/22 14:56:30;;;;;;;4.90;2.30;;;;;;;;;;5008621;28;20198;-68
2022/07/22 14:59:02;;;;;;;2.67;2.00;;;;;;;;;;5029039;28;20773;-69
2022/07/22 15:01:33;;;;;;;4.53;2.70;;;;;;;;;;5020253;28;20612;-68
2022/07/22 15:04:04;;;;;;;3.20;2.30;;;;;;;;;;5029107;28;20195;-68
2022/07/22 15:06:33;;;;;;;6.83;2.93;;;;;;;;;;5004204;28;20203;-68
2022/07/22 15:09:05;;;;;;;4.23;2.43;;;;;;;;;;5037723;28;20297;-68
2022/07/22 15:11:34;;;;;;;3.03;2.50;;;;;;;;;;5013180;28;20203;-69
2022/07/22 15:14:04;;;;;;;4.63;2.27;;;;;;;;;;5017624;28;20198;-69
2022/07/22 15:16:33;;;;;;;2.77;2.57;;;;;;;;;;5023701;28;21009;-67
2022/07/22 15:19:06;;;;;;;3.77;2.40;;;;;;;;;;5016328;28;20562;-67
2022/07/22 15:21:38;;;;;;;4.03;3.00;;;;;;;;;;4993642;28;20257;-67
2022/07/22 15:24:13;;;;;;;4.60;3.10;;;;;;;;;;5016363;28;20620;-67
2022/07/22 15:26:40;;;;;;;4.30;3.50;;;;;;;;;;5003875;28;20203;-67
2022/07/22 15:29:12;;;;;;;5.43;3.17;;;;;;;;;;5025215;28;20243;-67